Articles Comments Reads Score Date Action
Motel Financing Alternatives 2 1296 0 2005-07-28
6 Unit Building 6 2176 0 2005-07-20
Condotel Oppurtunity Hitting The Market This Week? 2 1592 0 2005-07-12
Buying Title Insurance For Yourself 1 1239 0 2005-07-17
Cash Back At Closing? 8 2651 0 2005-07-12
Hard Money 1 1602 0 2005-07-06
Impervious Cover Limit 2 1992 0 2005-07-26
How To Get Line Of Credit 1 1462 0 2005-07-28
Land For Cell Towers 5 1601 0 2005-07-27
Cash Flow Analysis Of Hotel 8 2056 0 2005-07-27
Auto Lots 1 1353 0 2005-07-26
Buying Land On Paper 0 1280 0 2005-07-19
Letter Of Intent 5 1549 0 2005-07-14
Owner Ocupied Office 2 1405 0 2005-07-02
90%ltv For NNN? 1 1358 0 2005-07-25
Have Property Under Contract Need Financing Advice 1 1120 0 2005-07-25
Land Lease 1 1247 0 2005-07-16
New Show On TLC Property Ladder 4 1615 0 2005-07-30
Stock Market Forums 2 1223 0 2005-07-08
What Is Your Yearly Income? 19 3140 0 2005-07-07
How To Get Into Auctions? 1 1010 0 2005-07-03
Anyone Been Approached To Do Robert Allen Mentoring Program? 10 2219 0 2005-07-01
Larry Goins (office Manager) 2 499 0 2005-07-27
Forget Me Not 5 624 0 2005-07-01
Another Question RE Short Sales & Probate 3 1064 0 2005-07-31
Short Sale Education 4 1300 0 2005-07-31
Question Regarding SS Strategy 0 947 0 2005-07-31
Quit Claim Deed From An Unknown? 3 1108 0 2005-07-30
SS With Household 1 1105 0 2005-07-30
We Dont Do Shortsales? 2 1165 0 2005-07-28
Future Of ShortSales? 7 1512 0 2005-07-25
Short Sale Procedure 1 1683 0 2005-07-23
I Want To Do A Short Sale But..... 7 1812 0 2005-07-19
First Short Sale Help 12 1826 0 2005-07-16
Short Sale 7 1606 0 2005-07-12
Banco Popular 0 827 0 2005-07-12
New To The Game 1 1177 0 2005-07-11
Short Sale Involving Family 1 1043 0 2005-07-10
Curious Question Forf You Short Salers 8 1131 0 2005-07-09
Jeff Kaller SS Boot Camp? 2 1906 0 2005-07-09
Do I Need A Full Proposal 9 1358 0 2005-07-08
Short Sale Package 1 1128 0 2005-07-06
Washington Pre Foreclosures 0 1333 0 2005-07-02
Shortsale And Bankruptcy 5 1571 0 2005-07-01
Can This Be Done 6 1069 0 2005-07-01
Explain Double Closing In Detail Once And For All, Please. 15 2673 0 2005-07-01
Seller Net Sheet To Bank 1 859 0 2005-07-01
Prospecting Letter Directly To Mortgagers 3 1142 0 2005-07-01
William Tingle Fake Or Real 7 1397 0 2005-07-28
State Agency Issued Mortgate 2 870 0 2005-07-27
Subject To And Bankruptcy 4 1095 0 2005-07-23
Need Attn In Il 0 975 0 2005-07-21
Do You Get A CO And Smoke Detector Certificate 2 1418 0 2005-07-14
Securing/Soliciting Private Funding Or Investors? 0 827 0 2005-07-12
Pre-construction Panama City, Florida 6 1564 0 2005-07-30
Investing In Pre Construction 1 859 0 2005-07-28
Can I? 1 886 0 2005-07-28
Pre-Construction Condo Deal? 23 5314 0 2005-07-27
Tools For Investing 1 1278 0 2005-07-26
Pre-Construction Condos 56 13026 0 2005-07-24
Mulit-family - Bird Dog Screening Check List 0 1094 0 2005-07-24
Pre-Construction Investing 22 4439 0 2005-07-21
Real Estate Investor Website Templates 5 1151 0 2005-07-20
My 1st Deal Fell Through! Do I Have Any Recourse? 1 1144 0 2005-07-20
Show Me The Ropes In Bird Dogging 4 1784 0 2005-07-18
In One Word-----HELP! 1 1327 0 2005-07-17
LLC To Landtrust 6 1564 0 2005-07-17
Finding The Owner 2 1255 0 2005-07-14
Pre-construction/New Construction Questions 1 1159 0 2005-07-14
Federal Grants 0 881 0 2005-07-14
Legal Descriptions & Surveys 0 941 0 2005-07-13
First Rental Questions" 1 1275 0 2005-07-13
Termite Inspection 1 928 0 2005-07-13
REI Club/association In Dallas Area 0 1177 0 2005-07-12
What To Do With $15K In Tulsa, OK. 2 1492 0 2005-07-11
New Investor With Not So Good Credit 1 1211 0 2005-07-10
Setting Up LLC 11 2045 0 2005-07-10
NEED HELP-Buying Apartment Building Help 4 1610 0 2005-07-10
Creative Ways To Buy AND Sell 6 1351 0 2005-07-10
Bird Dog- Atlanta-HELP 12 2269 0 2005-07-10
Montgomery County, MD 5 1101 0 2005-07-09
Holding A Contract? 3 1455 0 2005-07-08
Evaluating The Value Of A Property 4 2070 0 2005-07-05
Kepping Track Of Nonpayment? 0 752 0 2005-07-02
I Need A Good Birddog Contract 0 1225 0 2005-07-01
Wholesaling Vs. Assigning 4 1568 0 2005-07-01
How Do I Finance Comm. Property With Only... 2 1825 0 2005-07-30
1 Bedroom Each, On A Multifamily Home 2 1288 0 2005-07-28
Market In Chattanooga,Tenn. 2 1215 0 2005-07-26
100% Vacancy 6 1681 0 2005-07-23
How To Structure Multi-Unit For Cash @ Closing 3 1321 0 2005-07-23
Too Chicken To Step Out Of Box - Should I Do This In LV? 38 7387 0 2005-07-21
Anything Wrong With My Numbers? 5 2071 0 2005-07-20
How Do I CYA With This 12 Unit? 2 1816 0 2005-07-13
Financing Apartment Building 6 2640 0 2005-07-10
How About This Deal? 6 1526 0 2005-07-07
5+ Multi-family Insurance (MA) 2 2479 0 2005-07-05
Need Second Opinion... 0 1082 0 2005-07-28
Signs 1 913 0 2005-07-28
Answeringforall.com 2 1121 0 2005-07-27
Does Anyone Know How To Get Divorce Listings In New Jersey 0 1009 0 2005-07-24
You Can Put Up Flyers On Bulletin Boards 0 920 0 2005-07-24
Best Toll Free Service 6 1154 0 2005-07-22
Business Card Magnet- Do They Work 6 1363 0 2005-07-22
Thanks 10 1344 0 2005-07-19
Marketing For Rentals And Need An Example Of A Post Card 1 1039 0 2005-07-17
Motivated Sellers And Marketing 10 1666 0 2005-07-15
Deceased Owner 2 1399 0 2005-07-15
Free Example Letters And Postcard 5 1700 0 2005-07-12
Billboards To Find Motivated Sellers 4 1032 0 2005-07-06
Bill Boards For Sale 1 1452 0 2005-07-06
Fixers, OC California 11 2119 0 2005-07-05
Anyone Try Mailing To Absentee Owners? 5 1137 0 2005-07-05
D/E ? 7 1437 0 2005-07-30
Authorized User And Will It Affect My Credit 1 1107 0 2005-07-30
Hey Crazyfnmama 0 1278 0 2005-07-26
Consolidating.. 0 889 0 2005-07-18
How To Start 2 1561 0 2005-07-16
How Long Does It Take For A Negative Entry To Get Removed From Your CR After You Dispute It? 10 1967 0 2005-07-10
Thinking Of Investing In Phoenix Prop 6 1509 0 2005-07-08
1 Year Later Now What? 2 1434 0 2005-07-08
Gifting Property 1 1441 0 2005-07-05
I Am Receving Offers From Credit Card Providers 5 1178 0 2005-07-05
Interesting System For Credit Repair... 30 4664 0 2005-07-02
Creating Good Credit 5 1463 0 2005-07-02
Raw Land Developing 5 1488 0 2005-07-28
What Is A Condo Conversion? 2 1278 0 2005-07-27
Private Placement Memorandums 6 1287 0 2005-07-24
Where To Find Lenders For New Construction? 6 1621 0 2005-07-22
Re: To Lilbambina 0 1170 0 2005-07-19
Subdividing A Lot With 2 Duplexes On It? What Are The Gotchas? 1 1043 0 2005-07-15
Need Help With Development Deal 7 1200 0 2005-07-14
Deed Restrictions Against Sex Offenders? 8 1963 0 2005-07-13
Condo Conversion Team Of Professionals 0 1127 0 2005-07-12
Is There A Typical Foemula For The Option Price 12 1598 0 2005-07-27
Purchase Lease Option Myself After 18 Months? 0 1065 0 2005-07-27
L/O Seller Financing Possible? 0 886 0 2005-07-22
L/O In The State Of NC - Option Money 0 1233 0 2005-07-21
Lease Option Paperwork 2 1206 0 2005-07-20
Ground Partner Agreement 0 1307 0 2005-07-18
Chicago Creative RE Attorney Needed 1 1248 0 2005-07-15
Questions On L.O. Our Own Property 1 1421 0 2005-07-13
Please Help Me With This Question 1 971 0 2005-07-09
Investor Offering To LO My Property For Me....good Deal? 3 1350 0 2005-07-05
Please Help With Lease Option 3 1456 0 2005-07-04
Financing Options 1 1087 0 2005-07-04
Lease Backs On New Build Models. 5 1703 0 2005-07-04
How Do Your Tenants Contact You? 6 1034 0 2005-07-29
Need A Good PM In Arlington, TX 4 1588 0 2005-07-29
Question For PA Landlords 1 999 0 2005-07-28
Getting A Rental License On A Property Held In Trust 1 1113 0 2005-07-28
Tenants Going Bankrupt 1 1204 0 2005-07-27
What Do You Think? 1 1063 0 2005-07-27
Fire Alarms Required? 8 1519 0 2005-07-27
Tenants Personal Property Left After Eviction 1 1082 0 2005-07-26
House Rental 6 1449 0 2005-07-25
Pay Water Bill Or Not 6 1400 0 2005-07-23
Where To Research Population Growth Rates? 5 1049 0 2005-07-23
Rental Increase 4 1853 0 2005-07-23
What Do You About Multiple Tenants? 4 1204 0 2005-07-21
What Option Do I Have For Move In Payment 1 1075 0 2005-07-20
NO PETS...But A Scorpion, Or Two.... 3 995 0 2005-07-20
Is It Okay To Refuse Rent To Roomates? 5 1092 0 2005-07-19
Insurance On Multiple Properties - Umbrella Policy? 4 1104 0 2005-07-19
Eviction Process Question..AC Dead, Bug Infestion 0 1405 0 2005-07-19
Documents For Tenant Who Is Being Evicted 6 1251 0 2005-07-18
Adding To An Existing Rental Contract 4 1058 0 2005-07-17
How Many Properties 1 1079 0 2005-07-17
Lease/Purchase Question.. 4 1401 0 2005-07-16
Can I Kick Out A Tenant For No Reason At All? 3 1140 0 2005-07-14
Very Demanding Tenants 24 3072 0 2005-07-14
Electric Meter Separation 3 849 0 2005-07-14
Lease Structure-"10% Off Rent If On Time"-Legal? 14 1725 0 2005-07-13
Are Property Management Fees Tax Deductibe? 2 1065 0 2005-07-12
Properties Near Chapel Hill,NC - Renting To Students - Good/bad? 7 1152 0 2005-07-12
Using Tenant As On-site Mgr 4 1231 0 2005-07-09
Section 8? 5 1128 0 2005-07-08
Renting To Non-English Speaking Tenants 6 1372 0 2005-07-08
Key Solutions LLC In Baltimore 2 1247 0 2005-07-08
Tenant Complains Of Sexual Harassment From Other Tenant 11 1700 0 2005-07-07
Upper-end Townhome Renters Not Listening! 3 1251 0 2005-07-07
Does This Deal Make Sense 11 1665 0 2005-07-05
Question To Renting To Someone That Will Be Filing For Bankrupcy 0 1126 0 2005-07-05
Can You Evict Someone For Not Paying Utilities If Landlord Gets Stuck With Bill? 8 1599 0 2005-07-01
Help From Experienced Investors 7 1207 0 2005-07-01
Where To Credit Check Tenants 1 1080 0 2005-07-01
Where Do I Post With Questions About Taxes? 3 1269 0 2005-07-25
Capitol Gains 5 1223 0 2005-07-24
Capital Gains Tax Question On Sale Of Prior Rental Property 3 1140 0 2005-07-24
How To Minimize Taxes/avoid Double Tax In This Situation? 4 1719 0 2005-07-22
Incorporating? 7 1221 0 2005-07-22
What Are The Best TAX Advice Forums Online? 5 1666 0 2005-07-21
Taxs On Gain From A Property Bought From Another 4 1134 0 2005-07-20
Is Rental Income Taxed By The IRS The Same As Regular Income? 10 1182 0 2005-07-20
Tax Savings 1 890 0 2005-07-19
1031 Extension On 180 Day Rule 2 1089 0 2005-07-17
Personal Residance And Capital Gains? 2 963 0 2005-07-16
Vehicle Tax Write -offs (2005) 2 1144 0 2005-07-15
Half Of Home As Rental? 4 1287 0 2005-07-15
Passive Or Earned Income? 1 978 0 2005-07-15
Taxes/sell Of Property 1 1074 0 2005-07-12
Real Estate Capital Gains 3 1221 0 2005-07-11
Avoiding Capital Gains Taxes 8 1550 0 2005-07-11
Share Of Apt. Building And Capital Gains Tax 2 1041 0 2005-07-11
Best Way To Structure 1031 Exchange W/ Retirement? 3 1281 0 2005-07-11
Quit Claim And Capital Gain Tax 8 1325 0 2005-07-05
How Much Is Capital Gains Tax 1 1055 0 2005-07-03
Is A LLC Taking Half My Money In Taxes? 7 1387 0 2005-07-03
Heloc Question 0 966 0 2005-07-29
How Do I Structure To Sell? 2 1001 0 2005-07-29
Wraparound Mortgages? 11 1927 0 2005-07-29
Line Of Credit To LLC? 2 1228 0 2005-07-26
Is It Possible To Close In 3 Weeks? 8 1529 0 2005-07-26
Financing 3 1131 0 2005-07-25
Note Purchasing 9 1097 0 2005-07-22
Sellers Agent Threating To Sue Because I Cannot Get Financing 5 1353 0 2005-07-22
Donna Bauer 1 1099 0 2005-07-22
How Much Are Seller Financing Closing Costs? 0 1181 0 2005-07-21
How To Sell My Property With Owner Financing 0 944 0 2005-07-20
Carrying A Note For A Relative? 5 1032 0 2005-07-16
Lending To An LLC 4 1321 0 2005-07-08
Sheriff’s Deed Title Insurance 3 2227 0 2005-07-08
Note Buying, Refing, Please Look At My Plan 1 1368 0 2005-07-08
Construction Financing - 3 X SFH 2 1101 0 2005-07-07
Need Help Getting Started Locating Notes. 1 1369 0 2005-07-05
Pulling Equity 2 1760 0 2005-07-04
Help 0 968 0 2005-07-02
How Do I Structure? Help ASAP 3 1149 0 2005-07-02
What % Of Notes Are Purchased All Cash? 0 969 0 2005-07-01
Does Anyone Rent MHs? 2 1156 0 2005-07-08
Are Mobile Homes Really A Good Investment? 20 3722 0 2005-07-04
Condos 0 1361 0 2005-07-31
Flip Formula 7 1440 0 2005-07-31
Bought At 37,000 Sold At 190,000 What Would Be My Labor Cost 11 1666 0 2005-07-30
Gimme Your Thoughts 1 1089 0 2005-07-28
Are You Hiring GC To Do The Rehabs Or Doing It Yourself? 5 1214 0 2005-07-28
Rehabbing Formula... What Is It? 4 1322 0 2005-07-27
Rehab In Bad Area 14 1707 0 2005-07-27
To Sell Or Rent? 3 851 0 2005-07-26
Lease Option Hot Or Not 0 965 0 2005-07-25
Consolidating.. 3 1168 0 2005-07-24
What Is Best Month To Sell A House? 1 1185 0 2005-07-23
Finding Buyers 0 812 0 2005-07-23
Hard Money Has Anyone Used It To Rehab. And Made A Profit. 5 1431 0 2005-07-22
Is This A Deal? 3 935 0 2005-07-21
How Much Should You Buy Rehab Property For? 1 1076 0 2005-07-21
Boy Do I Need Advice! 1 906 0 2005-07-21
Selling Separate Lots On Rehab Property 6 1487 0 2005-07-20
One On One Short Sale Training 0 1139 0 2005-07-19
203(K) 3 1020 0 2005-07-18
Pre-construction/New Construction Questions 2 1304 0 2005-07-18
Scared Of Termites? 0 944 0 2005-07-18
A Friend Of Mine Wants Out Of A Lease To Own Contact. 0 857 0 2005-07-17
Standard System For Rehabbing 5 1858 0 2005-07-16
Question For Experienced Rehabbers 1 1019 0 2005-07-15
I Suspect Reason For Moisture Who Should Pay? 1 873 0 2005-07-15
Rehab Financing 10 2729 0 2005-07-15
Considering HML 1 1364 0 2005-07-14
Advice On Rehabbing Bathroom? 13 1488 0 2005-07-13
Cost Of Concrete Work 7 1117 0 2005-07-13
Going To Meet A Re Agent On Finding Some Rehab Propertys What Questions Should I Ask? 5 974 0 2005-07-12
How To Remove Wallpaper From The Ceiling? 5 1296 0 2005-07-11
What Should It Cost To Have A CA/H Installed In A 1500 Sqft Bungelow? 1 948 0 2005-07-11
What Is The Best Exterior Paint? 11 1673 0 2005-07-10
Party Wall Agreement 5 1006 0 2005-07-09
Basement Question 2 1013 0 2005-07-08
Removing Underground Oil Tank 8 1209 0 2005-07-08
Pre-construction 1 923 0 2005-07-07
Newbie 2 1076 0 2005-07-06
How Do I Find Hard Money? 4 1319 0 2005-07-06
Purchasing Fire Damaged Homes 0 831 0 2005-07-05
Owner Financing? 1 990 0 2005-07-04
Pergo Vs Hard Wood 3 1213 0 2005-07-04
18v Dewalt Battery Sale 4 1053 0 2005-07-04
Refinish Antique Cast Iron Sink 2 932 0 2005-07-02
Cost Of Installing AC? 5 1053 0 2005-07-02
Could A Total Neighborhood Rehab Like This Work? 4 1223 0 2005-07-01
License 1 1019 0 2005-07-30
Found A FSBO,now What 4 1549 0 2005-07-25
Out Clauses For Offer To Purchases 8 1277 0 2005-07-18
Offer Wording 0 885 0 2005-07-18
Have Property Under Contract 5 2037 0 2005-07-18
Looking For Double Closing Title Company In Balt. MD 0 1015 0 2005-07-17
Got One On The Hook, But..... 0 824 0 2005-07-15
Building A Network Of Investors 2 1270 0 2005-07-14
When To Pay For Title Search 0 891 0 2005-07-13
Needed Networking 0 912 0 2005-07-12
Good Reliable Comps 3 1070 0 2005-07-12
Pre-construction Investment Info 4 1412 0 2005-07-12
Joe Kamenar "Find & Assign" 0 882 0 2005-07-12
No Positive Cash Flow? 4 932 0 2005-07-12
Pre-construction In Raleigh/Durham/Chapel Hill,NC 0 914 0 2005-07-11
Dallas Wholesale Market 2 1192 0 2005-07-09
Can Someone Please Tell Me? 4 986 0 2005-07-09
Types Of Closings? 1 948 0 2005-07-09
Pre-payment Penalty 3 1107 0 2005-07-09
FLIP Fee Auction 3 1364 0 2005-07-08
Downtown Flint Michigan Wholesale 25,000 0 1060 0 2005-07-08
Can You Finance The Cost Of An Assignment Conract 0 923 0 2005-07-07
Flipping/Wholesaling 2 1456 0 2005-07-06
Technique On Retailing Like Wholesale Deal (?) 1 838 0 2005-07-06
Total Beginner That Wants To Do Wholesaling 18 3830 0 2005-07-04
Terminating Rental Lease Agreement? 2 989 0 2005-07-03
Anyone Making Real Money As The Investor 1 1171 0 2005-07-01
7 Unit In Brooklyn 0 946 0 2005-07-01
Questions About Buying Pre Foreclosures 2 1142 0 2005-07-30
Best States/Cities For Foreclosure Investing? 3 1457 0 2005-07-29
1st Mortgage Forecloses & 2nd Mortgage Forecloses 1 1094 0 2005-07-28
2nd Mortgage Foreclosure 2 2346 0 2005-07-28
Siding 1 898 0 2005-07-26
Mortgage On Foreclosure 1 981 0 2005-07-26
Moving To FLORIDA...need Tips On Purchasing 3 1240 0 2005-07-24
Trustee Sales - California 2 1079 0 2005-07-24
Can Anyone Explain This? 0 1304 0 2005-07-24
Quit Claims And Mortgage 4 1283 0 2005-07-22
Anyone Out There Know About Joe Kaiser? 0 826 0 2005-07-21
Software 6 1568 0 2005-07-20
Siding Job: Home Depot Vs Other Contractors 0 976 0 2005-07-19
How Long? How Many Offers? 0 825 0 2005-07-19
Can We Post Using HTML? 3 923 0 2005-07-18
Need Help / Pre-foreclosure 6 1420 0 2005-07-16
Homecoming Financial/Bank One NA Trust 1 1532 0 2005-07-15
Subject To Mortgages 1 1103 0 2005-07-14
What Form Of Marketing Has Worked Best For You? 1 1159 0 2005-07-13
Notice Of Default Lists 4 1472 0 2005-07-13
I Need An OH Contract 0 801 0 2005-07-12
Tax-lien Property 1 1170 0 2005-07-09
Help In California 3 1435 0 2005-07-07
California Real Estate License 4 1126 0 2005-07-07
Comparible Values 1 1022 0 2005-07-07
Help I Am In OR And Need To Buy A House! 1 984 0 2005-07-06
Most Reputable Online HMLs 0 907 0 2005-07-05
Quick Claim Deed In Atlanta, Ga 1 1168 0 2005-07-03
Contacting A Bank About An REO 6 1320 0 2005-07-03
Where To Get Money From? 0 1098 0 2005-07-01
When? 2 1026 0 2005-07-01
Receiving Unwanted Email 1 1071 0 2005-07-23
Condo Conversions 0 1200 0 2005-07-12
Flippers Forum 2 1486 0 2005-07-06
What Are Your Thoughts On Tax Liens? 1 1454 0 2005-07-30
3rdParty Markets For Tax Liens 10 1551 0 2005-07-28
Land Perking Question 2 1218 0 2005-07-27
Just Bought Tax Deed In Miami Fl, What Do I Do Now? 1 1321 0 2005-07-25
PMI Coaching 6 999 0 2005-07-22
Newbie Tax Sale Investor In Maryland 5 2052 0 2005-07-18
Ohio Tax Lien 3 1516 0 2005-07-18
Frank Discussion On Courses/books 9 1592 0 2005-07-18
Arizona? 10 2057 0 2005-07-15
"Parties Of Interest" Vs. "Interested Parties" 3 1313 0 2005-07-11
New Jersey Tax Lien 4 1329 0 2005-07-07
Judgement Leins 1 1217 0 2005-07-05
Tax Liens In Louisiana 7 2180 0 2005-07-01
The Point System? 2 1110 0 2005-07-19
Realty Trac 1 1092 0 2005-07-13
Courses On Appraising 3 1000 0 2005-07-07
TCI Success Story Contest 3 1318 0 2005-07-01
Lis Pendence & Bankruptcy 4 1270 0 2005-07-31
Need RE Layer? 0 976 0 2005-07-27
Know A Good RE Lawyer In Boston Area? 0 755 0 2005-07-26
Questions... 1 892 0 2005-07-26
Oregon Real Estate Attorney Wanted 1 986 0 2005-07-26
Seller Is Backing Out Of A Real Estate Transaction..HELP 2 1184 0 2005-07-25
Is This Agreement Still Valid? 3 994 0 2005-07-24
Courtesy Notice Of Violation - Evection 1 1131 0 2005-07-22
Trust (inter Vivos Trust Or Living Trust) 3 1077 0 2005-07-22
Will I Have Any Interest In The Property If....... 10 1028 0 2005-07-22
Lease Option Contract Help 11 1171 0 2005-07-22
Lis Pendens Question 6 1437 0 2005-07-21
Does This Sound O.k. 3 956 0 2005-07-21
Looking For References For A Lawyer In NC Area 0 839 0 2005-07-21
Double Closing And Contingencies Questions.... 0 993 0 2005-07-21
Flipping Properties 1 1030 0 2005-07-21
Rental Screening Program 0 927 0 2005-07-20
What Happens Now? 2 1029 0 2005-07-19
Business Tax Returns 0 1006 0 2005-07-19
Creating An LLC 100% Owned By My IRA 19 3123 0 2005-07-17
LLC For First Property 2 1419 0 2005-07-17
Backing Out Of HOA 4 995 0 2005-07-16
Seller Backing Out- What Action To Take? 4 1034 0 2005-07-15
Verbal Agreement 1 1054 0 2005-07-15
Need Reference For Good Delaware RE Attorney 4 1507 0 2005-07-14
How To Remove A Person From Title? Please Help 3 1097 0 2005-07-13
Question About Owner Occupied 2 1017 0 2005-07-13
Insurance Declined On A Circa1890 SF House 1 970 0 2005-07-12
Lawyer Conflict Of Interest? 1 1240 0 2005-07-12
Questions For The Real Estate Attorney 4 1240 0 2005-07-11
Another CG Question? 0 1024 0 2005-07-10
Co-signer Question 2 1128 0 2005-07-10
Pre Foreclosing Rental Lease With Option To Buy 4 1294 0 2005-07-09
First Right Of Refussal-Tenants Rights During Sale In Baltimore 9 2318 0 2005-07-09
Tax Lien Investing From The UK 1 1016 0 2005-07-08
Unconditional Waiver From Contractor 0 1126 0 2005-07-08
Am I Responsible For My Tenant's Behavior??? 17 2433 0 2005-07-07
Insider Trades To Build Value? 5 1080 0 2005-07-06
State Disclosure Laws... 1 1208 0 2005-07-06
Question On Renting To Someone Filing For Bankrupcy 2 1197 0 2005-07-06
Installment Sale Question....Please Help 4 1309 0 2005-07-05
Transfer To LLC -how Would The Lender Know? 4 1487 0 2005-07-05
Partnering On A Fix/flip 1 1037 0 2005-07-05
Obtaining Financing To Build House In Europe 3 1359 0 2005-07-03
Financial Agreement With Investor 5 1431 0 2005-07-02
Now They Want More Money 3 1377 0 2005-07-02
Cashing Out Of Partnership 3 1511 0 2005-07-02
Buy-Sell Agreements LLC 2 983 0 2005-07-02
Can A Power Of Attorney Stop Foreclosure With Bankruptcy. 1 1047 0 2005-07-02
If A Tree Falls In The Forest... 6 1114 0 2005-07-01
Can Two Nonrelated People Each Take The $250K Exemption On The Same Property? 4 964 0 2005-07-01
1031 Exchange Rules and Requirements 0 4788 0 2005-07-29
Foreclosure Risk Factors 0 4673 0 2005-07-29
Credit Card Spending’s Impact on New Jersey Mortgage Foreclosures 1 4879 0 2005-07-29
Building Your Dream Team 0 5258 0 2005-07-26
Investing in Real Estate & REITs without the headache 0 4190 0 2005-07-26
Tenants in Common (TIC) 0 5366 0 2005-07-25
How To Conduct On-Line Due Diligence Before Entering Into Business Relationships 0 4511 0 2005-07-25
Prepare Your Rental Property for Occupancy 0 4208 0 2005-07-21
In Remembrance of Barney Zick 0 4937 0 2005-07-21
North Carolinian Builds His Portfolio 0 4782 0 2005-07-20
Worst RE Markets... 2 6839 0 2005-07-20
The Power of Sweat Equity 0 5054 0 2005-07-18
10 Important Tips to Successful Real Estate Investing 0 4310 0 2005-07-18
House Not Home: Foreigners Buy Up American Real Estate 0 3968 0 2005-07-18
Putting the deals together—a Six month review. 1 5020 4 2005-07-15
Law & Logic of Homeowner Association Capital Reserves 0 4356 0 2005-07-15
The Power of Real Estate in Savannah 0 4972 0 2005-07-15
How the NASD wants you to market a TIC. 0 4678 0 2005-07-11
The Dual Option Multi-Party Asset Retention Trust 0 4713 0 2005-07-11
What Should You Do if Your Marketing Fails 0 4876 5 2005-07-11
NAHB’s Voluntary Model Green Home Building Guidelines 0 4000 0 2005-07-07
Housing May Sting More Than Dot.Com Bust 1 6217 0 2005-07-05

Please select the month you want to view: